createdAt,value
2022-08-18T00:02:28.713Z,75.20
2022-08-18T00:04:57.485Z,75.29
2022-08-18T00:07:31.017Z,75.42
2022-08-18T00:10:00.741Z,75.45
2022-08-18T00:12:38.103Z,75.46
2022-08-18T00:15:11.569Z,75.37
2022-08-18T00:17:40.746Z,75.53
2022-08-18T00:20:14.923Z,75.89
2022-08-18T00:22:44.513Z,75.79
2022-08-18T00:25:16.217Z,75.73
2022-08-18T00:27:45.800Z,75.73
2022-08-18T00:30:18.408Z,75.60
2022-08-18T00:32:54.664Z,75.53
2022-08-18T00:35:34.952Z,75.44
2022-08-18T00:38:06.735Z,75.49
2022-08-18T00:40:40.094Z,75.34
2022-08-18T00:43:19.194Z,75.44
2022-08-18T00:45:48.279Z,75.52
2022-08-18T00:48:17.263Z,75.45
2022-08-18T00:51:00.090Z,75.29
2022-08-18T00:53:37.847Z,75.22
2022-08-18T00:56:11.611Z,75.19
2022-08-18T00:58:51.547Z,75.11
2022-08-18T01:01:25.017Z,75.16
2022-08-18T01:04:03.244Z,75.14
2022-08-18T01:07:00.528Z,75.21
2022-08-18T01:09:30.318Z,75.24
2022-08-18T01:11:59.369Z,75.23
2022-08-18T01:14:28.965Z,75.30
2022-08-18T01:17:17.890Z,75.29
2022-08-18T01:20:07.251Z,75.18
2022-08-18T01:22:57.545Z,75.29
2022-08-18T01:25:45.502Z,75.46
2022-08-18T01:28:16.592Z,75.69
2022-08-18T01:30:49.146Z,75.78
2022-08-18T01:33:18.974Z,75.83
2022-08-18T01:35:49.244Z,75.88
2022-08-18T01:38:20.263Z,75.86
2022-08-18T01:41:17.335Z,75.82
2022-08-18T01:43:21.793Z,75.94
2022-08-18T01:45:51.791Z,75.84
2022-08-18T01:48:21.235Z,75.65
2022-08-18T01:50:51.148Z,75.62
2022-08-18T01:53:21.076Z,75.57
2022-08-18T01:55:50.527Z,75.57
2022-08-18T01:58:21.316Z,75.54
2022-08-18T02:00:51.476Z,75.62
2022-08-18T02:03:20.704Z,75.69
2022-08-18T02:05:51.671Z,75.75
2022-08-18T02:08:22.352Z,75.80
2022-08-18T02:10:54.169Z,75.72
2022-08-18T02:13:25.320Z,75.70
2022-08-18T02:15:54.480Z,75.72
2022-08-18T02:18:48.433Z,75.64
2022-08-18T02:21:01.928Z,75.61
2022-08-18T02:23:31.771Z,75.62
2022-08-18T02:26:06.949Z,75.67
2022-08-18T02:28:35.897Z,75.58
2022-08-18T02:31:08.072Z,75.51
2022-08-18T02:33:39.554Z,75.36
2022-08-18T02:36:12.113Z,75.28
2022-08-18T02:38:41.837Z,75.39
2022-08-18T02:41:14.539Z,75.45
2022-08-18T02:43:44.992Z,75.44
2022-08-18T02:46:14.559Z,75.33
2022-08-18T02:48:44.466Z,75.30
2022-08-18T02:51:17.053Z,75.37
2022-08-18T02:53:47.133Z,75.41
2022-08-18T02:56:40.478Z,75.43
2022-08-18T02:59:05.543Z,75.37
2022-08-18T03:01:41.378Z,75.49
2022-08-18T03:04:12.519Z,75.62
2022-08-18T03:06:41.976Z,75.80
2022-08-18T03:09:15.632Z,75.81
2022-08-18T03:11:46.320Z,75.82
2022-08-18T03:14:15.879Z,75.79
2022-08-18T03:16:53.606Z,75.68
2022-08-18T03:19:18.608Z,75.68
2022-08-18T03:21:48.501Z,75.68
2022-08-18T03:24:22.356Z,75.69
2022-08-18T03:26:49.997Z,75.85
2022-08-18T03:29:20.521Z,76.05
2022-08-18T03:31:50.196Z,76.09
2022-08-18T03:34:20.730Z,75.97
2022-08-18T03:36:50.478Z,75.94
2022-08-18T03:39:19.841Z,75.73
2022-08-18T03:41:59.965Z,75.59
2022-08-18T03:44:20.281Z,75.74
2022-08-18T03:46:50.177Z,76.00
2022-08-18T03:49:20.390Z,75.99
2022-08-18T03:51:51.357Z,75.99
2022-08-18T03:54:20.400Z,75.88
2022-08-18T03:56:49.522Z,75.74
2022-08-18T03:59:21.951Z,75.70
2022-08-18T04:01:52.276Z,75.60
2022-08-18T04:04:26.087Z,75.53
2022-08-18T04:07:06.046Z,75.44
2022-08-18T04:09:36.439Z,75.34
2022-08-18T04:12:13.426Z,75.13
2022-08-18T04:14:43.108Z,74.93
2022-08-18T04:17:12.006Z,74.76
2022-08-18T04:19:41.263Z,74.60
2022-08-18T04:22:11.353Z,74.68
2022-08-18T04:24:44.603Z,74.47
2022-08-18T04:27:15.293Z,74.38
2022-08-18T04:29:44.385Z,74.18
2022-08-18T04:32:13.292Z,74.07
2022-08-18T04:34:43.323Z,73.80
2022-08-18T04:37:13.677Z,73.43
2022-08-18T04:39:42.940Z,73.33
2022-08-18T04:42:12.130Z,73.28
2022-08-18T04:44:41.493Z,73.17
2022-08-18T04:47:10.983Z,73.10
2022-08-18T04:49:40.837Z,72.34
2022-08-18T04:52:40.809Z,72.27
2022-08-18T04:55:01.559Z,72.06
2022-08-18T04:57:34.054Z,71.92
2022-08-18T05:00:06.291Z,71.70
2022-08-18T05:02:35.610Z,71.10
2022-08-18T05:05:05.799Z,70.85
2022-08-18T05:07:34.749Z,70.76
2022-08-18T05:10:05.050Z,70.50
2022-08-18T05:12:35.351Z,70.26
2022-08-18T05:15:06.591Z,69.75
2022-08-18T05:17:39.793Z,69.29
2022-08-18T05:20:11.678Z,68.91
2022-08-18T05:22:42.068Z,68.61
2022-08-18T05:25:12.084Z,68.39
2022-08-18T05:27:43.688Z,68.10
2022-08-18T05:30:14.945Z,67.98
2022-08-18T05:32:49.618Z,67.50
2022-08-18T05:35:25.984Z,67.42
2022-08-18T05:38:26.630Z,67.33
2022-08-18T05:41:14.917Z,67.21
2022-08-18T05:43:51.744Z,67.09
2022-08-18T05:46:17.110Z,67.17
2022-08-18T05:48:48.173Z,67.06
2022-08-18T05:51:22.390Z,66.70
2022-08-18T05:54:10.184Z,66.34
2022-08-18T05:56:48.765Z,66.18
2022-08-18T05:59:34.531Z,66.11
2022-08-18T06:02:14.974Z,65.94
2022-08-18T06:04:55.874Z,65.75
2022-08-18T06:07:49.135Z,65.71
2022-08-18T06:10:19.022Z,65.47
2022-08-18T06:12:51.471Z,65.36
2022-08-18T06:15:29.125Z,64.98
2022-08-18T06:18:09.773Z,64.55
2022-08-18T06:21:10.272Z,64.66
2022-08-18T06:24:25.548Z,64.56
2022-08-18T06:27:14.936Z,64.40
2022-08-18T06:29:55.315Z,64.25
2022-08-18T06:32:47.947Z,63.73
2022-08-18T06:35:26.696Z,63.76
2022-08-18T06:38:28.506Z,64.42
2022-08-18T06:41:04.493Z,63.77
2022-08-18T06:43:36.935Z,62.16
2022-08-18T06:46:14.114Z,60.92
2022-08-18T06:48:54.659Z,59.92
2022-08-18T06:51:23.964Z,57.78
2022-08-18T06:54:01.472Z,57.01
2022-08-18T06:56:45.374Z,55.56
2022-08-18T06:59:25.263Z,53.95
2022-08-18T07:02:17.644Z,52.71
2022-08-18T07:05:09.746Z,52.08
2022-08-18T07:07:41.532Z,51.13
2022-08-18T07:10:22.476Z,50.33
2022-08-18T07:12:52.400Z,49.23
2022-08-18T07:15:24.963Z,49.20
2022-08-18T07:17:54.796Z,48.31
2022-08-18T07:20:25.654Z,47.76
2022-08-18T07:23:01.464Z,46.75
2022-08-18T07:25:41.384Z,45.80
2022-08-18T07:28:41.606Z,45.29
2022-08-18T07:31:42.447Z,45.25
2022-08-18T07:34:25.956Z,45.09
2022-08-18T07:37:14.368Z,44.56
2022-08-18T07:39:54.119Z,45.01
2022-08-18T07:43:01.483Z,44.24
2022-08-18T07:45:42.213Z,44.01
2022-08-18T07:48:37.669Z,43.79
2022-08-18T07:51:03.088Z,43.25
2022-08-18T07:54:47.909Z,42.74
2022-08-18T07:57:06.159Z,42.52
2022-08-18T08:00:00.147Z,41.67
2022-08-18T08:03:02.877Z,42.12
2022-08-18T08:05:43.255Z,42.23
2022-08-18T08:08:27.698Z,41.26
2022-08-18T08:11:40.096Z,41.48
2022-08-18T08:14:26.591Z,41.49
2022-08-18T08:17:08.402Z,40.64
2022-08-18T08:20:00.920Z,40.63
2022-08-18T08:23:03.223Z,40.52
2022-08-18T08:25:52.863Z,40.24
2022-08-18T08:28:13.696Z,40.31
2022-08-18T08:30:51.429Z,39.96
2022-08-18T08:33:49.266Z,39.73
2022-08-18T08:36:23.516Z,40.12
2022-08-18T08:39:02.406Z,40.49
2022-08-18T08:41:40.592Z,40.52
2022-08-18T08:44:58.939Z,40.17
2022-08-18T08:47:23.470Z,40.32
2022-08-18T08:50:09.362Z,39.96
2022-08-18T08:53:05.272Z,39.43
2022-08-18T08:55:40.364Z,39.77
2022-08-18T08:58:36.665Z,39.51
2022-08-18T09:01:05.951Z,39.80
2022-08-18T09:03:49.983Z,39.75
2022-08-18T09:06:36.487Z,39.45
2022-08-18T09:09:53.414Z,39.58
2022-08-18T09:12:33.861Z,40.16
2022-08-18T09:15:26.946Z,40.61
2022-08-18T09:18:20.018Z,40.75
2022-08-18T09:20:54.112Z,41.05
2022-08-18T09:23:33.461Z,41.05
2022-08-18T09:26:38.576Z,41.62
2022-08-18T09:29:16.745Z,41.84
2022-08-18T09:31:46.318Z,42.32
2022-08-18T09:34:26.665Z,42.80
2022-08-18T09:37:26.406Z,43.00
2022-08-18T09:40:26.069Z,42.43
2022-08-18T09:42:58.023Z,42.51
2022-08-18T09:45:35.698Z,42.83
2022-08-18T09:50:38.211Z,43.01
2022-08-18T09:50:57.969Z,43.01
2022-08-18T09:53:49.122Z,42.10
2022-08-18T09:56:54.491Z,42.62
2022-08-18T09:59:38.671Z,41.79
2022-08-18T10:02:22.724Z,41.79
2022-08-18T10:04:51.698Z,41.45
2022-08-18T10:07:41.766Z,41.35
2022-08-18T10:11:01.579Z,41.50
2022-08-18T10:13:49.142Z,41.63
2022-08-18T10:16:57.649Z,42.02
2022-08-18T10:19:52.675Z,42.35
2022-08-18T10:22:41.266Z,41.72
2022-08-18T10:25:23.366Z,41.66
2022-08-18T10:27:49.196Z,41.60
2022-08-18T10:30:57.616Z,41.86
2022-08-18T10:33:18.120Z,42.10
2022-08-18T10:35:58.995Z,41.87
2022-08-18T10:41:26.751Z,41.98
2022-08-18T10:43:58.102Z,42.20
2022-08-18T10:46:36.978Z,42.31
2022-08-18T10:49:17.384Z,42.43
2022-08-18T10:52:18.059Z,42.63
2022-08-18T10:55:20.253Z,42.54
2022-08-18T10:58:40.571Z,42.59
2022-08-18T11:01:42.563Z,41.93
2022-08-18T11:04:36.784Z,41.65
2022-08-18T11:07:14.285Z,41.44
2022-08-18T11:12:58.605Z,41.58
2022-08-18T11:16:00.813Z,41.91
2022-08-18T11:18:43.257Z,42.28
2022-08-18T11:21:42.790Z,42.42
2022-08-18T11:24:27.064Z,42.33
2022-08-18T11:27:09.739Z,42.40
2022-08-18T11:29:39.561Z,42.80
2022-08-18T11:32:23.769Z,43.19
2022-08-18T11:35:18.561Z,42.98
2022-08-18T11:37:53.698Z,42.84
2022-08-18T11:46:31.915Z,42.38
2022-08-18T11:49:01.987Z,42.77
2022-08-18T11:51:33.940Z,42.96
2022-08-18T11:54:17.422Z,42.91
2022-08-18T11:56:46.375Z,42.74
2022-08-18T11:59:53.660Z,42.75
2022-08-18T12:02:12.200Z,42.73
2022-08-18T12:04:43.992Z,42.78
2022-08-18T12:07:20.802Z,42.74
2022-08-18T12:10:17.887Z,42.96
2022-08-18T12:12:28.303Z,43.01
2022-08-18T12:15:23.851Z,43.31
2022-08-18T12:17:52.506Z,43.51
2022-08-18T12:20:22.579Z,43.49
2022-08-18T12:22:54.082Z,43.32
2022-08-18T12:25:25.279Z,43.25
2022-08-18T12:27:55.268Z,43.27
2022-08-18T12:30:25.117Z,43.35
2022-08-18T12:33:04.854Z,43.43
2022-08-18T12:35:27.109Z,43.26
2022-08-18T12:38:00.170Z,42.75
2022-08-18T12:40:27.744Z,42.56
2022-08-18T12:43:00.552Z,42.77
2022-08-18T12:45:33.018Z,42.69
2022-08-18T12:50:50.069Z,42.74
2022-08-18T12:53:11.822Z,43.13
2022-08-18T12:55:44.190Z,42.93
2022-08-18T12:58:15.131Z,42.80
2022-08-18T13:00:46.466Z,42.90
2022-08-18T13:03:16.234Z,43.11
2022-08-18T13:05:47.144Z,42.67
2022-08-18T13:08:27.607Z,43.04
2022-08-18T13:10:51.862Z,42.51
2022-08-18T13:13:24.964Z,42.32
2022-08-18T13:15:58.219Z,41.97
2022-08-18T13:18:28.549Z,41.97
2022-08-18T13:21:00.646Z,41.95
2022-08-18T13:23:30.931Z,42.41
2022-08-18T13:26:02.998Z,41.69
2022-08-18T13:28:36.167Z,41.69
2022-08-18T13:31:06.185Z,41.74
2022-08-18T13:33:58.137Z,41.60
2022-08-18T13:36:08.133Z,41.74
2022-08-18T13:38:38.603Z,41.82
2022-08-18T13:41:08.694Z,41.82
2022-08-18T13:43:44.681Z,41.47
2022-08-18T13:46:18.555Z,41.61
2022-08-18T13:48:49.467Z,41.78
2022-08-18T13:51:22.847Z,41.91
2022-08-18T13:54:15.824Z,41.86
2022-08-18T13:56:31.598Z,41.86
2022-08-18T13:58:55.489Z,42.38
2022-08-18T14:01:44.723Z,42.94
2022-08-18T14:03:57.832Z,42.94
2022-08-18T14:08:57.872Z,42.19
2022-08-18T14:11:33.033Z,42.57
2022-08-18T14:14:01.857Z,42.66
2022-08-18T14:16:31.773Z,42.38
2022-08-18T14:19:22.700Z,42.50
2022-08-18T14:22:13.033Z,41.92
2022-08-18T14:25:00.960Z,41.98
2022-08-18T14:27:35.521Z,41.98
2022-08-18T14:30:10.170Z,42.14
2022-08-18T14:32:48.814Z,42.16
2022-08-18T14:35:33.748Z,42.59
2022-08-18T14:37:44.252Z,42.46
2022-08-18T14:40:13.084Z,42.61
2022-08-18T14:42:54.516Z,42.87
2022-08-18T14:45:26.596Z,42.67
2022-08-18T14:47:46.264Z,42.65
2022-08-18T14:50:17.345Z,42.61
2022-08-18T14:52:50.494Z,42.53
2022-08-18T14:55:20.296Z,42.50
2022-08-18T14:57:50.361Z,42.50
2022-08-18T15:00:21.062Z,42.63
2022-08-18T15:02:51.566Z,42.60
2022-08-18T15:05:24.430Z,42.19
2022-08-18T15:07:52.508Z,42.19
2022-08-18T15:10:27.946Z,41.97
2022-08-18T15:12:53.853Z,41.97
2022-08-18T15:15:25.295Z,42.18
2022-08-18T15:17:55.176Z,41.43
2022-08-18T15:20:29.673Z,41.38
2022-08-18T15:23:24.934Z,41.67
2022-08-18T15:25:52.813Z,41.67
2022-08-18T15:28:25.338Z,41.31
2022-08-18T15:33:32.300Z,41.43
2022-08-18T15:36:03.249Z,41.68
2022-08-18T15:38:32.898Z,41.49
2022-08-18T15:41:05.983Z,41.39
2022-08-18T15:43:34.189Z,41.64
2022-08-18T15:46:04.025Z,41.50
2022-08-18T15:48:34.295Z,41.59
2022-08-18T15:51:07.956Z,41.44
2022-08-18T15:53:40.058Z,41.32
2022-08-18T15:56:16.062Z,41.39
2022-08-18T15:58:48.293Z,41.49
2022-08-18T16:01:30.555Z,41.57
2022-08-18T16:03:55.049Z,41.37
2022-08-18T16:06:27.594Z,41.54
2022-08-18T16:08:57.986Z,41.54
2022-08-18T16:11:29.528Z,41.67
2022-08-18T16:13:59.820Z,41.92
2022-08-18T16:16:36.066Z,42.01
2022-08-18T16:19:05.388Z,42.16
2022-08-18T16:21:37.349Z,42.05
2022-08-18T16:24:07.885Z,42.06
2022-08-18T16:26:39.225Z,42.37
2022-08-18T16:29:08.632Z,42.62
2022-08-18T16:31:39.863Z,42.70
2022-08-18T16:34:09.587Z,42.37
2022-08-18T16:36:39.252Z,42.76
2022-08-18T16:39:09.330Z,43.02
2022-08-18T16:41:38.914Z,43.09
2022-08-18T16:44:07.986Z,43.09
2022-08-18T16:46:37.587Z,43.45
2022-08-18T16:49:08.179Z,43.80
2022-08-18T16:51:37.352Z,43.84
2022-08-18T16:54:07.806Z,43.92
2022-08-18T16:56:37.330Z,43.87
2022-08-18T16:59:25.514Z,44.05
2022-08-18T17:02:14.374Z,44.12
2022-08-18T17:04:43.655Z,44.37
2022-08-18T17:07:14.136Z,44.76
2022-08-18T17:09:48.490Z,44.88
2022-08-18T17:12:18.684Z,44.86
2022-08-18T17:14:51.940Z,45.04
2022-08-18T17:17:20.951Z,45.14
2022-08-18T17:19:50.712Z,45.27
2022-08-18T17:22:20.293Z,45.28
2022-08-18T17:24:49.825Z,45.37
2022-08-18T17:27:26.308Z,45.44
2022-08-18T17:30:08.851Z,45.46
2022-08-18T17:33:00.773Z,45.70
2022-08-18T17:35:37.210Z,46.06
2022-08-18T17:38:35.660Z,46.03
2022-08-18T17:41:07.321Z,46.17
2022-08-18T17:43:46.156Z,46.36
2022-08-18T17:46:18.238Z,46.39
2022-08-18T17:48:52.398Z,46.60
2022-08-18T17:51:43.434Z,46.45
2022-08-18T17:54:35.140Z,46.42
2022-08-18T17:57:16.865Z,46.37
2022-08-18T17:59:55.482Z,46.59
2022-08-18T18:02:30.569Z,46.77
2022-08-18T18:05:02.146Z,46.88
2022-08-18T18:07:55.446Z,46.94
2022-08-18T18:13:31.738Z,47.02
2022-08-18T18:16:32.249Z,47.11
2022-08-18T18:19:09.675Z,47.21
2022-08-18T18:21:58.960Z,47.23
2022-08-18T18:24:14.617Z,47.38
2022-08-18T18:26:48.840Z,47.46
2022-08-18T18:29:33.339Z,47.44
2022-08-18T18:32:12.394Z,47.58
2022-08-18T18:34:46.556Z,47.90
2022-08-18T18:37:34.252Z,47.88
2022-08-18T18:40:07.564Z,47.96
2022-08-18T18:42:37.787Z,47.86
2022-08-18T18:45:09.692Z,47.84
2022-08-18T18:48:04.396Z,47.59
2022-08-18T18:51:10.313Z,47.47
2022-08-18T18:54:17.182Z,47.65
2022-08-18T18:56:54.459Z,47.71
2022-08-18T18:59:46.779Z,47.90
2022-08-18T19:02:33.543Z,48.08
2022-08-18T19:05:11.543Z,48.11
2022-08-18T19:08:28.771Z,48.09
2022-08-18T19:11:38.501Z,48.22
2022-08-18T19:14:26.125Z,48.36
2022-08-18T19:17:07.210Z,48.59
2022-08-18T19:19:44.962Z,48.79
2022-08-18T19:22:31.935Z,49.00
2022-08-18T19:25:16.803Z,48.82
2022-08-18T19:28:06.209Z,48.79
2022-08-18T19:30:39.003Z,49.19
2022-08-18T19:33:10.177Z,49.07
2022-08-18T19:36:03.284Z,49.07
2022-08-18T19:39:19.883Z,49.15
2022-08-18T19:41:58.614Z,49.18
2022-08-18T19:45:15.511Z,49.12
2022-08-18T19:47:52.042Z,49.15
2022-08-18T19:50:45.957Z,49.17
2022-08-18T19:53:53.865Z,49.45
2022-08-18T19:56:29.759Z,49.66
2022-08-18T19:59:34.980Z,49.82
2022-08-18T20:02:33.909Z,49.91
2022-08-18T20:05:50.610Z,50.03
2022-08-18T20:08:58.702Z,50.19
2022-08-18T20:11:41.883Z,50.67
2022-08-18T20:14:06.838Z,50.75
2022-08-18T20:16:44.334Z,50.79
2022-08-18T20:19:43.021Z,50.73
2022-08-18T20:22:24.442Z,50.88
2022-08-18T20:25:07.413Z,51.13
2022-08-18T20:27:40.753Z,51.47
2022-08-18T20:30:52.752Z,51.15
2022-08-18T20:33:29.534Z,51.33
2022-08-18T20:36:19.572Z,51.69
2022-08-18T20:38:53.157Z,51.97
2022-08-18T20:41:48.796Z,51.99
2022-08-18T20:44:37.852Z,52.39
2022-08-18T20:47:39.112Z,52.53
2022-08-18T20:50:51.328Z,52.73
2022-08-18T20:53:40.899Z,52.68
2022-08-18T20:56:43.143Z,52.68
2022-08-18T20:59:27.254Z,53.04
2022-08-18T21:02:01.174Z,53.25
2022-08-18T21:04:48.919Z,53.49
2022-08-18T21:07:36.445Z,53.73
2022-08-18T21:10:13.112Z,53.98
2022-08-18T21:12:52.612Z,54.24
2022-08-18T21:15:15.294Z,54.44
2022-08-18T21:17:45.703Z,54.99
2022-08-18T21:20:16.244Z,55.20
2022-08-18T21:22:45.692Z,55.21
2022-08-18T21:25:16.190Z,55.23
2022-08-18T21:27:45.636Z,55.58
2022-08-18T21:30:24.226Z,55.52
2022-08-18T21:32:53.872Z,55.68
2022-08-18T21:35:33.598Z,55.71
2022-08-18T21:38:06.982Z,55.81
2022-08-18T21:40:48.376Z,56.15
2022-08-18T21:43:49.082Z,56.26
2022-08-18T21:46:26.190Z,56.29
2022-08-18T21:48:56.110Z,56.64
2022-08-18T21:51:38.664Z,56.70
2022-08-18T21:54:08.322Z,56.94
2022-08-18T21:56:40.023Z,57.03
2022-08-18T21:59:16.888Z,57.33
2022-08-18T22:01:54.287Z,57.43
2022-08-18T22:04:36.199Z,57.69
2022-08-18T22:07:14.101Z,57.73
2022-08-18T22:10:24.159Z,57.74
2022-08-18T22:13:16.706Z,57.79
2022-08-18T22:15:50.605Z,58.14
2022-08-18T22:18:35.579Z,58.22
2022-08-18T22:21:06.455Z,58.37
2022-08-18T22:24:04.188Z,58.50
2022-08-18T22:26:36.802Z,58.68
2022-08-18T22:29:31.274Z,59.03
2022-08-18T22:32:01.473Z,59.29
2022-08-18T22:34:34.373Z,59.70
2022-08-18T22:37:14.345Z,59.78
2022-08-18T22:39:54.739Z,59.85
2022-08-18T22:42:28.584Z,59.95
2022-08-18T22:45:04.509Z,60.05
2022-08-18T22:47:30.266Z,60.16
2022-08-18T22:50:02.700Z,60.24
2022-08-18T22:52:37.367Z,60.34
2022-08-18T22:55:09.325Z,60.36
2022-08-18T22:57:40.459Z,60.42
2022-08-18T23:00:16.203Z,60.79
2022-08-18T23:02:47.583Z,60.93
2022-08-18T23:05:17.537Z,61.08
2022-08-18T23:07:46.520Z,61.22
2022-08-18T23:10:16.611Z,61.39
2022-08-18T23:12:49.396Z,61.34
2022-08-18T23:15:18.714Z,61.35
2022-08-18T23:17:50.066Z,61.40
2022-08-18T23:20:19.927Z,61.49
2022-08-18T23:22:49.287Z,61.65
2022-08-18T23:25:18.713Z,61.72
2022-08-18T23:27:48.278Z,61.76
2022-08-18T23:30:17.502Z,61.81
2022-08-18T23:32:47.862Z,61.84
2022-08-18T23:35:17.592Z,61.85
2022-08-18T23:37:48.756Z,62.03
2022-08-18T23:40:20.048Z,62.22
2022-08-18T23:42:51.870Z,62.18
2022-08-18T23:45:21.589Z,62.57
2022-08-18T23:47:52.634Z,62.59
2022-08-18T23:50:24.434Z,62.66
2022-08-18T23:52:59.242Z,62.69
2022-08-18T23:55:29.323Z,62.93
2022-08-18T23:57:58.313Z,63.07
